Time;durP1;ratioP1;P1;durP2;ratioP2;P2;SDS_P1;SDS_P2;PMS_P1;PMS_P2;Temp;Humidity;BMP_temperature;BMP_pressure;BME280_temperature;BME280_humidity;BME280_pressure;Samples;Min_cycle;Max_cycle;Signal;HPM_P1;HPM_P2
2021/10/09 00:02:03;;;;;;;2.80;2.45;;;;;;;17.68;45.96;102603.94;5029001;28;20087;-62
2021/10/09 00:04:28;;;;;;;7.22;4.70;;;;;;;17.65;45.31;102604.22;5047250;28;20439;-62
2021/10/09 00:06:56;;;;;;;5.22;3.85;;;;;;;17.63;45.29;102605.34;5057118;28;20037;-61
2021/10/09 00:09:23;;;;;;;8.73;4.57;;;;;;;17.61;44.81;102605.47;5047763;28;20028;-62
2021/10/09 00:11:52;;;;;;;7.38;3.83;;;;;;;17.61;46.18;102610.03;5029876;28;20024;-62
2021/10/09 00:14:24;;;;;;;9.85;4.70;;;;;;;17.56;46.39;102596.84;5063640;28;20048;-62
2021/10/09 00:16:55;;;;;;;6.65;3.60;;;;;;;17.58;45.77;102604.88;5062629;28;20022;-63
2021/10/09 00:19:45;;;;;;;5.40;3.40;;;;;;;17.50;44.81;102602.78;5049432;28;20013;-62
2021/10/09 00:22:20;;;;;;;4.82;3.45;;;;;;;17.46;45.98;102607.59;5059302;28;20033;-62
2021/10/09 00:24:46;;;;;;;8.10;3.72;;;;;;;17.41;45.70;102600.84;5029599;28;20037;-62
2021/10/09 00:27:24;;;;;;;5.95;3.85;;;;;;;17.37;44.56;102599.38;5044002;28;20022;-62
2021/10/09 00:29:56;;;;;;;3.83;3.22;;;;;;;17.34;45.12;102599.63;5064604;28;20033;-62
2021/10/09 00:32:24;;;;;;;5.22;3.63;;;;;;;17.32;45.01;102593.50;5029959;28;20505;-62
2021/10/09 00:34:59;;;;;;;5.38;3.20;;;;;;;17.30;46.01;102606.31;5025291;28;20033;-62
2021/10/09 00:37:24;;;;;;;5.20;3.92;;;;;;;17.26;44.97;102597.59;5044208;28;20101;-62
2021/10/09 00:39:59;;;;;;;6.22;3.60;;;;;;;17.25;46.31;102606.69;5024540;28;20475;-62
2021/10/09 00:42:25;;;;;;;5.40;3.63;;;;;;;17.20;46.11;102602.66;5034654;28;20033;-62
2021/10/09 00:44:51;;;;;;;5.38;3.38;;;;;;;17.17;45.95;102597.53;5051505;28;20071;-62
2021/10/09 00:47:17;;;;;;;6.47;4.55;;;;;;;17.16;45.73;102598.50;5032449;28;20025;-62
2021/10/09 00:49:43;;;;;;;8.10;4.93;;;;;;;17.15;46.01;102607.59;5048198;28;20059;-62
2021/10/09 00:52:10;;;;;;;5.63;3.72;;;;;;;17.14;45.01;102605.91;5048178;28;20493;-62
2021/10/09 00:54:38;;;;;;;4.88;3.17;;;;;;;17.10;45.08;102604.41;5046042;28;20494;-62
2021/10/09 00:57:04;;;;;;;7.95;3.42;;;;;;;17.05;45.63;102590.41;5030628;28;20025;-62
2021/10/09 00:59:29;;;;;;;4.97;3.58;;;;;;;17.00;45.47;102589.94;5041767;28;20079;-62
2021/10/09 01:01:58;;;;;;;6.05;3.40;;;;;;;17.00;45.09;102608.88;5036216;28;20021;-62
2021/10/09 01:04:23;;;;;;;4.75;3.00;;;;;;;16.95;45.65;102605.69;5018352;28;20419;-62
2021/10/09 01:06:49;;;;;;;4.47;2.72;;;;;;;16.92;46.03;102608.66;5017930;28;20025;-62
2021/10/09 01:09:14;;;;;;;5.10;3.67;;;;;;;16.87;44.87;102604.47;5018469;28;20076;-62
2021/10/09 01:11:40;;;;;;;5.60;4.35;;;;;;;16.79;45.05;102590.72;5035959;28;20562;-62
2021/10/09 01:14:06;;;;;;;6.15;4.28;;;;;;;16.83;45.04;102604.88;5036509;28;20037;-62
2021/10/09 01:16:31;;;;;;;7.90;4.72;;;;;;;16.81;45.67;102599.56;5051263;28;20069;-62
2021/10/09 01:18:58;;;;;;;7.60;4.95;;;;;;;16.77;45.87;102586.44;5053663;28;20074;-62
2021/10/09 01:21:25;;;;;;;6.50;3.78;;;;;;;16.80;45.37;102592.44;5037308;28;20052;-62
2021/10/09 01:23:51;;;;;;;7.97;4.05;;;;;;;16.80;45.22;102597.00;5020704;28;20441;-62
2021/10/09 01:26:16;;;;;;;8.27;4.65;;;;;;;16.79;45.14;102596.13;5054528;28;20021;-62
2021/10/09 01:28:45;;;;;;;6.22;4.18;;;;;;;16.79;45.63;102590.72;5037202;28;20427;-62
2021/10/09 01:31:11;;;;;;;9.68;5.75;;;;;;;16.80;45.16;102581.63;5037044;28;20478;-62
2021/10/09 01:33:36;;;;;;;11.75;6.05;;;;;;;16.84;45.44;102588.50;5054661;28;20025;-62
2021/10/09 01:36:02;;;;;;;8.23;5.57;;;;;;;16.92;46.73;102593.25;5055113;28;20033;-62
2021/10/09 01:38:28;;;;;;;10.98;6.72;;;;;;;16.95;46.24;102586.72;5054872;28;20024;-62
2021/10/09 01:40:54;;;;;;;12.02;7.32;;;;;;;16.98;45.64;102578.34;5036794;28;20565;-62
2021/10/09 01:43:21;;;;;;;9.48;6.65;;;;;;;17.05;45.71;102585.88;5054692;28;20104;-62
2021/10/09 01:45:47;;;;;;;13.48;7.60;;;;;;;17.08;45.86;102580.19;5037042;28;20029;-62
2021/10/09 01:48:14;;;;;;;10.15;6.35;;;;;;;17.10;45.72;102571.94;5037840;28;20144;-62
2021/10/09 01:50:40;;;;;;;10.95;7.25;;;;;;;17.12;46.49;102580.78;5053288;28;20175;-62
2021/10/09 01:53:07;;;;;;;10.77;6.35;;;;;;;17.11;46.21;102573.66;5055292;28;20033;-62
2021/10/09 01:55:34;;;;;;;10.90;6.70;;;;;;;17.13;46.67;102574.38;5055579;28;20025;-62
2021/10/09 01:57:59;;;;;;;13.07;6.38;;;;;;;17.14;46.47;102573.41;5054693;28;20544;-62
2021/10/09 02:00:24;;;;;;;11.75;6.90;;;;;;;17.13;46.58;102572.53;5055419;28;20021;-62
2021/10/09 02:02:50;;;;;;;13.80;7.45;;;;;;;17.15;46.13;102575.09;5055496;28;20074;-62
2021/10/09 02:05:16;;;;;;;13.38;7.75;;;;;;;17.12;45.66;102570.81;5055386;28;20431;-62
2021/10/09 02:07:41;;;;;;;14.68;6.32;;;;;;;17.14;46.74;102573.41;5054935;28;20017;-62
2021/10/09 02:10:07;;;;;;;12.00;6.70;;;;;;;17.13;45.66;102571.66;5036900;28;20060;-62
2021/10/09 02:12:33;;;;;;;11.90;6.40;;;;;;;17.10;46.30;102572.78;5020963;28;20497;-62
2021/10/09 02:15:05;;;;;;;9.68;5.47;;;;;;;17.09;46.42;102570.19;5055596;28;20020;-62
2021/10/09 02:25:48;;;;;;;7.28;4.07;;;;;;;16.91;45.93;102560.91;5054757;28;20028;-62
2021/10/09 02:28:21;;;;;;;5.53;2.80;;;;;;;16.87;46.03;102554.88;5039111;28;20079;-62
2021/10/09 02:30:47;;;;;;;7.28;3.95;;;;;;;16.82;46.28;102563.41;5037181;28;20031;-62
2021/10/09 02:33:13;;;;;;;6.07;3.83;;;;;;;16.77;46.81;102557.53;5055999;28;20033;-62
2021/10/09 02:35:38;;;;;;;5.68;3.75;;;;;;;16.69;45.77;102551.03;5020702;28;20540;-62
2021/10/09 02:38:05;;;;;;;6.43;4.13;;;;;;;16.63;45.28;102548.81;5054912;28;20029;-62
2021/10/09 02:40:30;;;;;;;5.45;3.65;;;;;;;16.63;45.21;102557.78;5054895;28;20112;-62
2021/10/09 02:42:56;;;;;;;5.05;3.45;;;;;;;16.61;46.83;102543.50;5054663;28;20521;-62
2021/10/09 02:45:21;;;;;;;7.75;4.60;;;;;;;16.58;46.34;102551.88;5055092;28;20031;-62
2021/10/09 02:47:47;;;;;;;8.70;5.07;;;;;;;16.55;46.81;102560.28;5055457;28;20405;-62
2021/10/09 02:50:16;;;;;;;9.80;6.05;;;;;;;16.51;46.76;102547.06;5054923;28;20100;-62
2021/10/09 02:52:42;;;;;;;6.50;4.32;;;;;;;16.51;45.83;102545.22;5037799;28;20047;-62
2021/10/09 02:55:08;;;;;;;12.65;5.72;;;;;;;16.53;45.36;102545.09;5054836;28;20025;-62
2021/10/09 02:57:36;;;;;;;11.95;6.93;;;;;;;16.52;45.44;102549.66;5020137;28;20024;-62
2021/10/09 03:00:01;;;;;;;14.38;6.80;;;;;;;16.55;45.37;102554.88;5054441;28;20440;-62
2021/10/09 03:02:26;;;;;;;13.75;7.43;;;;;;;16.56;46.36;102548.44;5054561;28;20056;-62
2021/10/09 03:04:52;;;;;;;16.30;6.93;;;;;;;16.60;46.85;102552.63;5020027;28;20061;-62
2021/10/09 03:07:17;;;;;;;13.80;6.85;;;;;;;16.50;46.04;102532.69;5036811;28;20063;-62
2021/10/09 03:09:42;;;;;;;14.65;7.25;;;;;;;16.62;46.52;102556.06;5054177;28;20025;-62
2021/10/09 03:12:08;;;;;;;13.90;7.53;;;;;;;16.59;46.03;102561.72;5054351;28;20472;-62
2021/10/09 03:14:33;;;;;;;10.05;5.55;;;;;;;16.56;46.46;102556.56;5054357;28;20386;-62
2021/10/09 03:16:58;;;;;;;9.73;4.78;;;;;;;16.50;45.84;102565.13;5054651;28;20025;-62
2021/10/09 03:19:24;;;;;;;8.40;4.80;;;;;;;16.39;46.49;102554.34;5054672;28;20390;-62
2021/10/09 03:21:49;;;;;;;8.23;4.70;;;;;;;16.35;45.42;102558.28;5054213;28;20033;-62
2021/10/09 03:24:15;;;;;;;9.10;4.85;;;;;;;16.28;45.37;102551.63;5037025;28;20037;-62
2021/10/09 03:26:40;;;;;;;8.88;5.05;;;;;;;16.26;46.40;102559.03;5054248;28;20028;-62
2021/10/09 03:29:05;;;;;;;4.95;3.75;;;;;;;16.22;46.36;102562.94;5037557;28;20025;-62
2021/10/09 03:31:31;;;;;;;6.78;4.80;;;;;;;16.13;45.44;102561.00;5058596;28;20025;-62
2021/10/09 03:33:56;;;;;;;7.10;4.30;;;;;;;16.14;45.67;102560.00;5058120;28;20033;-62
2021/10/09 03:36:21;;;;;;;7.80;4.40;;;;;;;16.09;45.76;102551.41;5023612;28;20025;-62
2021/10/09 03:38:47;;;;;;;9.25;5.05;;;;;;;16.12;46.44;102567.38;5039890;28;20021;-62
2021/10/09 03:41:14;;;;;;;12.57;6.05;;;;;;;16.10;45.50;102563.94;5057866;28;20375;-62
2021/10/09 03:43:39;;;;;;;14.18;6.78;;;;;;;16.07;46.02;102553.38;5040769;28;20016;-62
2021/10/09 03:46:42;;;;;;;12.75;7.32;;;;;;;16.03;46.47;102552.75;5057629;28;20382;-62
2021/10/09 03:49:19;;;;;;;14.68;7.78;;;;;;;16.07;46.23;102564.19;5055201;28;20395;-62
2021/10/09 03:54:28;;;;;;;19.70;7.38;;;;;;;16.05;46.37;102567.00;5057698;28;20386;-62
2021/10/09 03:56:54;;;;;;;17.52;9.15;;;;;;;16.07;46.21;102566.88;5039829;28;20025;-62
2021/10/09 03:59:19;;;;;;;19.70;8.73;;;;;;;16.09;45.89;102567.63;5057146;28;20036;-62
2021/10/09 04:01:44;;;;;;;19.83;10.40;;;;;;;16.12;45.91;102570.94;5057730;28;20033;-62
2021/10/09 04:04:10;;;;;;;21.00;10.02;;;;;;;16.15;46.59;102567.13;5023322;28;20082;-62
2021/10/09 04:06:35;;;;;;;18.05;9.13;;;;;;;16.17;46.81;102559.75;5039730;28;20024;-62
2021/10/09 04:09:00;;;;;;;18.92;9.63;;;;;;;16.18;46.48;102566.91;5039618;28;20017;-62
2021/10/09 04:11:26;;;;;;;19.88;9.65;;;;;;;16.20;47.29;102570.31;5039195;28;20450;-62
2021/10/09 04:13:51;;;;;;;21.77;11.27;;;;;;;16.20;45.89;102564.91;5039852;28;20032;-62
2021/10/09 04:16:16;;;;;;;19.08;10.48;;;;;;;16.19;47.57;102563.22;5057159;28;20107;-62
2021/10/09 04:18:42;;;;;;;21.50;11.35;;;;;;;16.20;46.35;102564.91;5039464;28;20025;-62
2021/10/09 04:21:07;;;;;;;17.38;9.40;;;;;;;16.21;46.34;102564.81;5058336;28;20021;-62
2021/10/09 04:23:32;;;;;;;20.33;10.13;;;;;;;16.22;46.26;102568.34;5039563;28;20032;-62
2021/10/09 04:25:58;;;;;;;22.25;11.73;;;;;;;16.23;46.09;102568.25;5039376;28;20517;-62
2021/10/09 04:28:23;;;;;;;19.75;10.13;;;;;;;16.22;46.12;102571.06;5056847;28;20467;-62
2021/10/09 04:30:48;;;;;;;23.92;10.40;;;;;;;16.23;46.16;102567.38;5056751;28;20028;-62
2021/10/09 04:33:14;;;;;;;20.13;10.52;;;;;;;16.19;46.90;102564.06;5056662;28;20060;-62
2021/10/09 04:35:39;;;;;;;23.27;11.50;;;;;;;16.23;46.73;102567.38;5056698;28;20081;-62
2021/10/09 04:38:08;;;;;;;24.38;10.50;;;;;;;16.22;46.44;102574.63;5056663;28;20021;-62
2021/10/09 04:40:34;;;;;;;23.60;10.85;;;;;;;16.21;45.96;102572.06;5055867;28;20021;-62
2021/10/09 04:42:59;;;;;;;24.55;11.75;;;;;;;16.15;46.64;102572.53;5056774;28;20028;-62
2021/10/09 04:45:24;;;;;;;22.13;11.15;;;;;;;16.19;46.58;102582.16;5056654;28;20048;-62
2021/10/09 04:47:50;;;;;;;26.35;11.65;;;;;;;16.15;46.64;102567.13;5056994;28;20017;-62
2021/10/09 04:50:15;;;;;;;23.35;11.25;;;;;;;16.18;46.99;102580.41;5039009;28;20104;-62
2021/10/09 04:52:40;;;;;;;23.80;11.70;;;;;;;16.16;47.39;102575.13;5022346;28;20025;-62
2021/10/09 04:55:07;;;;;;;25.80;12.52;;;;;;;16.17;46.84;102571.44;5039591;28;20075;-62
2021/10/09 04:57:32;;;;;;;22.38;11.65;;;;;;;16.17;47.02;102565.16;5056436;28;20029;-62
2021/10/09 04:59:57;;;;;;;25.90;12.38;;;;;;;16.18;47.31;102566.91;5056862;28;20107;-62
2021/10/09 05:02:23;;;;;;;29.75;13.18;;;;;;;16.16;47.60;102566.16;5039179;28;20029;-62
2021/10/09 05:04:48;;;;;;;26.17;12.02;;;;;;;16.12;47.86;102560.13;5056333;28;20021;-62
2021/10/09 05:07:13;;;;;;;28.80;12.35;;;;;;;16.11;47.96;102571.06;5038652;28;20051;-62
2021/10/09 05:09:39;;;;;;;26.27;12.30;;;;;;;16.07;46.78;102564.19;5038863;28;20025;-62
2021/10/09 05:12:07;;;;;;;26.85;12.65;;;;;;;16.07;48.01;102572.28;5038811;28;20025;-62
2021/10/09 05:14:33;;;;;;;28.20;14.10;;;;;;;16.04;47.93;102569.84;5056425;28;20028;-62
2021/10/09 05:16:58;;;;;;;28.65;13.52;;;;;;;16.06;47.34;102573.28;5056161;28;20029;-62
2021/10/09 05:19:24;;;;;;;32.70;12.80;;;;;;;16.05;47.08;102577.81;5056055;28;20033;-62
2021/10/09 05:21:49;;;;;;;30.63;14.13;;;;;;;16.07;47.92;102575.00;5056059;28;20044;-62
2021/10/09 05:24:14;;;;;;;29.60;13.15;;;;;;;16.00;47.76;102565.63;5038414;28;20031;-62
2021/10/09 05:26:40;;;;;;;27.83;12.77;;;;;;;16.06;46.63;102578.69;5038144;28;20056;-61
2021/10/09 05:29:10;;;;;;;27.60;13.48;;;;;;;16.07;46.60;102580.41;5055795;28;20112;-62
2021/10/09 05:31:35;;;;;;;30.15;14.02;;;;;;;16.07;47.82;102580.41;5038951;28;20461;-62
2021/10/09 05:34:01;;;;;;;30.25;14.25;;;;;;;16.07;47.84;102580.41;5055602;28;20108;-62
2021/10/09 05:36:26;;;;;;;30.63;14.20;;;;;;;16.06;48.01;102575.97;5021780;28;20055;-62
2021/10/09 05:38:52;;;;;;;27.75;12.98;;;;;;;16.05;48.02;102580.50;5055408;28;20040;-62
2021/10/09 05:41:18;;;;;;;27.27;13.95;;;;;;;16.03;46.96;102579.78;5037792;28;20052;-62
2021/10/09 05:43:48;;;;;;;34.17;14.02;;;;;;;16.05;46.58;102587.78;5058170;28;20031;-62
2021/10/09 05:46:15;;;;;;;30.52;14.02;;;;;;;16.07;46.43;102585.81;5027187;28;20025;-62
2021/10/09 05:48:41;;;;;;;35.20;16.30;;;;;;;16.09;47.19;102589.25;5056874;28;20032;-62
2021/10/09 05:51:28;;;;;;;30.77;13.85;;;;;;;16.09;46.97;102594.66;5035702;28;20044;-62
2021/10/09 06:44:57;;;;;;;34.20;14.57;;;;;;;16.62;47.44;102628.25;5054818;28;20032;-62
2021/10/09 07:00:52;;;;;;;33.55;15.00;;;;;;;17.39;46.10;102619.09;5054697;28;20546;-62
2021/10/09 07:03:19;;;;;;;32.22;14.45;;;;;;;17.53;46.48;102624.22;5050971;28;20108;-62
2021/10/09 07:05:46;;;;;;;34.55;15.20;;;;;;;17.67;46.77;102632.03;5028929;28;20021;-62
2021/10/09 07:08:11;;;;;;;34.13;15.07;;;;;;;17.76;46.34;102620.41;5030393;28;20088;-62
2021/10/09 07:10:39;;;;;;;29.63;14.40;;;;;;;17.95;46.41;102625.13;5047389;28;20056;-62
2021/10/09 07:13:04;;;;;;;40.15;16.70;;;;;;;18.07;45.66;102623.16;5028787;28;20030;-62
2021/10/09 07:15:31;;;;;;;34.20;14.73;;;;;;;18.22;45.47;102627.25;5051866;28;20101;-62
2021/10/09 07:17:57;;;;;;;35.88;15.25;;;;;;;18.37;45.41;102626.75;5014219;28;20112;-62
2021/10/09 07:20:23;;;;;;;37.00;16.20;;;;;;;18.51;45.99;102628.28;5048500;28;20063;-62
2021/10/09 07:22:48;;;;;;;33.10;16.17;;;;;;;18.62;45.81;102628.19;5014510;28;20021;-62
2021/10/09 07:25:15;;;;;;;33.63;15.77;;;;;;;18.80;45.62;102631.09;5029685;28;20815;-62
2021/10/09 07:27:40;;;;;;;35.80;16.60;;;;;;;18.95;45.20;102627.88;5046607;28;20098;-62
2021/10/09 07:30:06;;;;;;;30.95;14.73;;;;;;;19.11;45.44;102633.63;5047983;28;20092;-62
2021/10/09 07:32:32;;;;;;;34.05;16.60;;;;;;;19.26;45.37;102630.50;5028992;28;20022;-62
2021/10/09 07:34:57;;;;;;;30.42;15.20;;;;;;;19.43;45.51;102638.81;5046935;28;20025;-62
2021/10/09 07:37:23;;;;;;;29.88;14.88;;;;;;;19.58;45.69;102639.25;5048578;28;20111;-62
2021/10/09 07:39:48;;;;;;;38.35;16.35;;;;;;;19.72;45.30;102638.81;5046924;28;20025;-62
2021/10/09 07:42:14;;;;;;;33.65;17.35;;;;;;;19.89;45.07;102638.09;5031839;28;20029;-63
2021/10/09 07:44:39;;;;;;;35.65;17.10;;;;;;;20.01;45.13;102633.34;5040279;28;20025;-62
2021/10/09 07:47:06;;;;;;;31.95;15.02;;;;;;;20.19;44.77;102647.91;5058644;28;20163;-62
2021/10/09 07:49:32;;;;;;;30.85;16.38;;;;;;;20.37;44.39;102645.31;5057914;28;20037;-62
2021/10/09 07:51:57;;;;;;;34.47;16.35;;;;;;;20.52;45.21;102638.38;5059244;28;20086;-62
2021/10/09 07:54:23;;;;;;;33.35;15.18;;;;;;;20.71;44.65;102643.75;5040941;28;20075;-62
2021/10/09 07:56:48;;;;;;;28.23;15.75;;;;;;;20.89;45.02;102644.63;5057841;28;20048;-62
2021/10/09 07:59:13;;;;;;;36.47;15.88;;;;;;;21.04;44.05;102640.41;5057963;28;20029;-62
2021/10/09 08:01:39;;;;;;;29.33;15.60;;;;;;;21.19;44.76;102648.97;5057928;28;20032;-62
2021/10/09 08:04:04;;;;;;;30.88;15.90;;;;;;;21.35;44.34;102649.13;5057504;28;20028;-62
2021/10/09 08:06:30;;;;;;;34.58;16.17;;;;;;;21.50;44.17;102646.72;5057320;28;20035;-62
2021/10/09 08:08:55;;;;;;;27.15;15.82;;;;;;;21.59;44.25;102640.31;5056646;28;20095;-62
2021/10/09 08:11:20;;;;;;;28.55;15.35;;;;;;;21.71;43.64;102644.50;5056853;28;20025;-62
2021/10/09 08:13:46;;;;;;;34.83;15.80;;;;;;;21.79;43.64;102647.31;5056466;28;20029;-62
2021/10/09 08:16:11;;;;;;;34.10;15.48;;;;;;;21.90;43.60;102641.63;5056217;28;20383;-62
2021/10/09 08:18:37;;;;;;;33.85;15.95;;;;;;;21.97;43.34;102645.44;5056125;28;20051;-62
2021/10/09 08:21:04;;;;;;;25.10;14.18;;;;;;;22.14;42.86;102649.16;5056111;28;20025;-62
2021/10/09 08:23:37;;;;;;;35.00;14.85;;;;;;;22.30;43.33;102655.56;5056180;28;20028;-62
2021/10/09 08:36:55;;;;;;;28.27;14.40;;;;;;;22.72;42.98;102658.41;5055825;28;20040;-61
2021/10/09 08:39:20;;;;;;;32.08;14.77;;;;;;;22.81;42.89;102665.59;5055371;28;20040;-61
2021/10/09 08:41:46;;;;;;;28.92;14.63;;;;;;;22.93;41.96;102660.69;5059265;28;20025;-61
2021/10/09 08:44:12;;;;;;;32.13;16.25;;;;;;;23.05;42.24;102662.97;5056482;28;20036;-62
2021/10/09 08:46:37;;;;;;;31.58;15.68;;;;;;;23.16;42.48;102656.34;5056041;28;20029;-62
2021/10/09 08:49:03;;;;;;;33.45;14.82;;;;;;;23.27;42.44;102658.75;5055566;28;20478;-62
2021/10/09 08:51:28;;;;;;;31.80;15.38;;;;;;;23.38;42.24;102649.41;5055507;28;20110;-62
2021/10/09 08:53:55;;;;;;;31.33;16.70;;;;;;;23.52;42.13;102652.34;5055204;28;20394;-62
2021/10/09 08:56:48;;;;;;;30.00;15.88;;;;;;;23.73;42.28;102658.16;5054490;28;20029;-62
2021/10/09 08:59:28;;;;;;;34.88;16.15;;;;;;;23.92;41.48;102656.97;5052735;28;20039;-62
2021/10/09 09:02:01;;;;;;;31.00;14.63;;;;;;;24.08;41.78;102656.09;5055518;28;20040;-61
2021/10/09 09:05:11;;;;;;;;;;;;;;;24.24;41.84;102658.84;5036104;28;20032;-61
2021/10/09 09:32:40;;;;;;;24.50;14.38;;;;;;;27.69;36.77;102647.72;5054561;28;20398;-62
2021/10/09 09:35:20;;;;;;;25.45;13.80;;;;;;;27.74;36.93;102644.41;5055001;28;20025;-62
2021/10/09 09:40:37;;;;;;;24.98;12.73;;;;;;;28.00;36.21;102641.84;5054770;28;20461;-62
2021/10/09 09:43:02;;;;;;;26.75;13.45;;;;;;;28.21;35.49;102638.25;5054772;28;20029;-62
2021/10/09 09:45:28;;;;;;;22.13;13.15;;;;;;;28.50;35.05;102638.03;5054339;28;20108;-61
2021/10/09 09:47:55;;;;;;;26.25;13.27;;;;;;;28.68;35.25;102630.06;5054138;28;20021;-62
2021/10/09 09:50:21;;;;;;;23.77;13.63;;;;;;;28.87;34.45;102633.97;5054096;28;20049;-61
2021/10/09 09:52:47;;;;;;;23.10;13.57;;;;;;;29.14;34.17;102635.78;5054102;28;20386;-62
2021/10/09 09:55:17;;;;;;;27.70;14.55;;;;;;;29.27;34.79;102626.72;5054181;28;20029;-61
2021/10/09 09:57:43;;;;;;;23.95;13.85;;;;;;;29.46;34.34;102636.94;5054303;28;20031;-61
2021/10/09 10:00:09;;;;;;;23.80;13.50;;;;;;;29.66;34.61;102628.69;5053877;28;20055;-61
2021/10/09 10:02:43;;;;;;;28.45;14.38;;;;;;;29.91;33.22;102632.56;5054209;28;20079;-61
2021/10/09 10:05:09;;;;;;;25.35;12.82;;;;;;;30.21;33.86;102625.50;5054093;28;20028;-62
2021/10/09 10:07:38;;;;;;;25.67;13.82;;;;;;;30.47;33.27;102628.25;5054289;28;20020;-62
2021/10/09 10:10:04;;;;;;;21.75;13.18;;;;;;;30.60;33.12;102632.06;5036827;28;20408;-61
2021/10/09 10:12:30;;;;;;;23.55;13.20;;;;;;;30.66;32.79;102625.63;5036431;28;20025;-61
2021/10/09 10:14:57;;;;;;;28.85;13.63;;;;;;;30.80;32.66;102628.13;5054080;28;20043;-62
2021/10/09 10:17:40;;;;;;;23.13;13.60;;;;;;;31.06;32.51;102624.44;5036299;28;20028;-59
2021/10/09 10:20:15;;;;;;;26.02;12.73;;;;;;;31.22;31.95;102626.69;5053963;28;20032;-59
2021/10/09 10:22:41;;;;;;;27.10;13.02;;;;;;;31.39;32.38;102627.00;5036395;28;20056;-59
2021/10/09 10:25:21;;;;;;;29.52;12.82;;;;;;;31.50;31.91;102627.19;5054134;28;20359;-59
2021/10/09 10:28:01;;;;;;;20.70;13.15;;;;;;;31.66;31.76;102629.38;5053858;28;20387;-59
2021/10/09 10:30:34;;;;;;;24.48;13.38;;;;;;;31.91;31.38;102625.81;5054072;28;20028;-59
2021/10/09 10:32:59;;;;;;;23.15;12.15;;;;;;;31.98;31.10;102624.66;5053616;28;20467;-60
2021/10/09 10:35:34;;;;;;;19.98;12.45;;;;;;;32.04;30.64;102631.25;5053542;28;20031;-58
2021/10/09 10:38:03;;;;;;;18.90;12.27;;;;;;;32.02;31.01;102611.22;5053105;28;20501;-59
2021/10/09 10:40:45;;;;;;;19.52;11.60;;;;;;;32.09;31.04;102623.09;5053106;28;20021;-58
2021/10/09 10:43:29;;;;;;;19.52;12.85;;;;;;;32.14;30.78;102626.00;5053906;28;20427;-59
2021/10/09 10:45:55;;;;;;;21.02;11.73;;;;;;;32.21;30.71;102627.66;5053806;28;20368;-59
2021/10/09 10:48:47;;;;;;;17.98;12.05;;;;;;;32.26;30.45;102624.19;5035717;28;20040;-58
2021/10/09 10:56:56;;;;;;;24.65;12.30;;;;;;;32.32;30.07;102617.75;5053645;28;20445;-59
2021/10/09 10:59:49;;;;;;;22.52;11.55;;;;;;;32.38;29.71;102613.19;5053531;28;20028;-59
2021/10/09 11:02:29;;;;;;;17.80;10.52;;;;;;;32.35;30.47;102616.44;5053355;28;20033;-58
2021/10/09 11:04:58;;;;;;;14.77;10.80;;;;;;;32.47;30.53;102609.88;5053700;28;20487;-58
2021/10/09 11:07:32;;;;;;;20.15;11.95;;;;;;;32.59;30.38;102613.59;5053504;28;20466;-59
2021/10/09 11:10:23;;;;;;;18.15;11.00;;;;;;;32.70;29.86;102612.81;5035754;28;20021;-59
2021/10/09 11:12:51;;;;;;;18.33;11.82;;;;;;;32.79;30.59;102610.59;5053512;28;20359;-58
2021/10/09 11:15:20;;;;;;;18.80;12.23;;;;;;;32.84;29.66;102619.06;5053487;28;20029;-58
2021/10/09 11:17:48;;;;;;;19.63;11.40;;;;;;;32.92;30.38;102606.78;5053272;28;20033;-58
2021/10/09 11:20:23;;;;;;;18.90;11.13;;;;;;;32.97;29.92;102601.38;5053714;28;20025;-59
2021/10/09 11:22:50;;;;;;;20.95;11.32;;;;;;;33.05;28.91;102607.47;5053035;28;20024;-59
2021/10/09 11:25:30;;;;;;;22.70;11.77;;;;;;;33.12;29.96;102604.59;5052967;28;20040;-59
2021/10/09 11:27:57;;;;;;;25.08;12.48;;;;;;;33.21;29.92;102605.97;5053310;28;20048;-56
2021/10/09 11:30:23;;;;;;;18.65;11.27;;;;;;;33.27;29.30;102605.88;5053130;28;20029;-57
2021/10/09 11:32:48;;;;;;;26.17;12.77;;;;;;;33.42;29.73;102599.03;5053950;28;20029;-57
2021/10/09 11:35:15;;;;;;;22.15;12.20;;;;;;;33.52;29.38;102597.38;5054424;28;20029;-57
2021/10/09 11:37:52;;;;;;;16.80;11.30;;;;;;;33.59;28.51;102587.00;5053842;28;20021;-59
2021/10/09 11:40:39;;;;;;;19.85;11.68;;;;;;;33.65;28.91;102591.63;5053268;28;20351;-56
2021/10/09 11:43:19;;;;;;;18.60;10.98;;;;;;;33.63;28.98;102584.59;5035982;28;20035;-57
2021/10/09 11:46:10;;;;;;;23.75;11.30;;;;;;;33.59;29.45;102575.88;5053492;28;20075;-57
2021/10/09 11:57:21;;;;;;;18.45;9.85;;;;;;;33.25;29.14;102580.25;5056574;28;20035;-58
2021/10/09 11:59:46;;;;;;;17.30;10.55;;;;;;;33.21;29.14;102579.03;5056589;28;20024;-57
2021/10/09 12:02:32;;;;;;;19.05;9.50;;;;;;;33.22;28.63;102571.56;5056694;28;20033;-57
2021/10/09 12:04:58;;;;;;;20.98;10.43;;;;;;;33.22;29.29;102579.91;5056954;28;20021;-57
2021/10/09 12:07:23;;;;;;;18.83;9.30;;;;;;;33.20;29.07;102580.13;5056453;28;20047;-57
2021/10/09 12:09:58;;;;;;;15.40;9.27;;;;;;;33.15;29.54;102584.69;5056080;28;20467;-57
2021/10/09 12:12:33;;;;;;;17.30;9.20;;;;;;;33.10;28.39;102579.00;5056255;28;20055;-58
2021/10/09 12:14:59;;;;;;;16.45;9.20;;;;;;;33.11;29.26;102577.94;5038440;28;20376;-57
2021/10/09 12:17:34;;;;;;;18.55;9.63;;;;;;;33.10;28.34;102581.78;5056338;28;20028;-57
2021/10/09 12:20:02;;;;;;;12.95;8.18;;;;;;;33.04;29.28;102575.19;5056418;28;20021;-57
2021/10/09 12:22:40;;;;;;;14.13;8.52;;;;;;;32.97;27.79;102576.38;5056000;28;20021;-57
2021/10/09 12:25:17;;;;;;;20.52;9.90;;;;;;;32.89;28.98;102568.38;5056170;28;20037;-57
2021/10/09 12:27:44;;;;;;;17.80;9.00;;;;;;;32.84;29.00;102567.16;5038552;28;20035;-58
2021/10/09 12:30:12;;;;;;;17.13;8.45;;;;;;;32.82;28.63;102562.91;5056374;28;20025;-57
2021/10/09 12:32:42;;;;;;;16.75;8.32;;;;;;;32.75;28.37;102560.22;5056305;28;20036;-57
2021/10/09 12:35:14;;;;;;;13.88;7.95;;;;;;;32.76;28.98;102558.28;5055963;28;20495;-60
2021/10/09 12:38:01;;;;;;;12.52;8.45;;;;;;;32.74;29.30;102549.34;5022349;28;20379;-58
2021/10/09 12:40:35;;;;;;;15.00;7.13;;;;;;;32.69;28.85;102554.78;5056224;28;20033;-57
2021/10/09 12:43:01;;;;;;;14.77;7.82;;;;;;;32.56;28.55;102547.44;5056177;28;20036;-58
2021/10/09 12:45:28;;;;;;;12.50;7.82;;;;;;;32.54;29.12;102544.06;5055844;28;20025;-59
2021/10/09 12:47:58;;;;;;;15.05;7.78;;;;;;;32.53;27.80;102536.78;5055991;28;20025;-58
2021/10/09 12:50:28;;;;;;;15.32;8.02;;;;;;;32.43;28.59;102535.63;5055781;28;20187;-58
2021/10/09 12:52:55;;;;;;;19.40;8.48;;;;;;;32.22;28.68;102531.41;5038490;28;20396;-58
2021/10/09 12:55:26;;;;;;;14.52;8.25;;;;;;;32.09;28.20;102528.78;5056021;28;20363;-58
2021/10/09 12:57:53;;;;;;;14.98;7.63;;;;;;;32.07;28.82;102533.72;5037949;28;20024;-57
2021/10/09 13:00:20;;;;;;;15.93;8.50;;;;;;;32.03;28.60;102526.91;5055615;28;20025;-57
2021/10/09 13:02:45;;;;;;;15.27;7.65;;;;;;;31.94;28.93;102529.13;5037334;28;20032;-58
2021/10/09 13:05:10;;;;;;;15.10;7.35;;;;;;;31.78;28.91;102526.94;5055735;28;20451;-58
2021/10/09 13:07:36;;;;;;;14.77;7.38;;;;;;;31.62;28.48;102521.97;5055393;28;20040;-58
2021/10/09 13:10:03;;;;;;;12.98;6.93;;;;;;;31.46;28.75;102528.06;5055523;28;20479;-58
2021/10/09 13:12:30;;;;;;;11.40;6.65;;;;;;;31.35;28.86;102526.84;5055329;28;20112;-58
2021/10/09 13:14:55;;;;;;;10.38;5.65;;;;;;;31.23;28.92;102523.13;5038308;28;20044;-57
2021/10/09 13:17:21;;;;;;;10.50;6.07;;;;;;;31.13;29.02;102515.31;5055523;28;20032;-58
2021/10/09 13:19:46;;;;;;;10.18;5.68;;;;;;;31.06;29.08;102517.28;5055188;28;20471;-58
2021/10/09 13:22:11;;;;;;;17.35;6.43;;;;;;;31.01;29.15;102513.50;5055319;28;20368;-58
2021/10/09 13:24:37;;;;;;;11.07;6.45;;;;;;;30.97;28.98;102517.78;5055067;28;20171;-58
2021/10/09 13:27:02;;;;;;;13.93;5.72;;;;;;;30.96;29.34;102514.16;5055259;28;20039;-58
2021/10/09 13:32:01;;;;;;;13.88;5.75;;;;;;;30.83;29.47;102505.91;5079405;28;20090;-87